Hlavní strana
METAR-TAF:

METAR-TAF

Letiště :

Džíbútí, Džibutsko

zeměpisná šířka: 11-33N, zeměpisná délka: 043-10E, výška: 49 m

Aktuální stav počasí

Zpráva byla vytvořena před 1 hodinou a 29 minutami, v 10:00 UTC
Východní vítr 14 kt
Teplota 34°C
Vlhkost vzduchu 60%
Tlak 1009 hPa
Viditelnost 10 km a více
Skoro jasno ve výšce 2300 ft

METAR: HDAM 261000Z 08014KT 9999 FEW023 34/25 Q1009

Čas: 14:29 (11:29 UTC)

Předpověď počasí

Zpráva byla vytvořena před 6 hodinami a 29 minutami, v 05:00 UTC
Předpověď platná od 26 v 06 UTC do 27 v 06 UTC
Východní vítr 10 kt
Viditelnost 10 km a více
Skoro jasno ve výšce 2300 ft
Změna
od 26 v 15 UTC do 26 v 18 UTC
vítr z různých směrů 3 kt
Polojasno ve výšce 2000 ft
Změna
od 27 v 00 UTC do 27 v 06 UTC
Severní vítr kt
Polojasno ve výšce 2000 ft

TAF: HDAM 260500Z 2606/2706 08010KT 9999 FEW023 BECMG 2615/2618 VRB03KT SCT020 BECMG 2700/2706 00000KT SCT020

Stav a předpovědi počasí z více než 4 000 letišť (zprávy METAR a TAF).

Červené a žluté tečky na mapě představují dostupné meteorologické stanice.

Když kurzor umístíte na tečku, zobrazí se název stanice.

Pak kliknutím zobrazíte stav a předpověď počasí.

Chcete-li změnit mapu, kliknutím na zelené tlačítko se znaménkem +mapu přiblížíte, kliknutím na zelené tlačítko se znaménkem – mapu oddálíte a kliknutím na zelené šipky přejdete na sousední mapy.


METAR-TAF: